createdAt,value
2023-03-03T00:00:02.899Z,39.08
2023-03-03T00:02:39.172Z,35.28
2023-03-03T00:05:06.318Z,36.70
2023-03-03T00:07:32.862Z,30.13
2023-03-03T00:09:59.571Z,30.90
2023-03-03T00:12:30.687Z,34.15
2023-03-03T00:14:57.713Z,36.38
2023-03-03T00:17:27.537Z,34.45
2023-03-03T00:19:54.275Z,38.10
2023-03-03T00:22:30.901Z,34.40
2023-03-03T00:25:23.518Z,37.22
2023-03-03T00:27:50.093Z,36.90
2023-03-03T00:30:27.501Z,39.70
2023-03-03T00:32:55.670Z,34.45
2023-03-03T00:35:30.924Z,43.88
2023-03-03T00:37:59.776Z,41.38
2023-03-03T00:40:33.631Z,39.47
2023-03-03T00:43:00.872Z,41.88
2023-03-03T00:45:37.718Z,52.37
2023-03-03T00:48:38.055Z,39.30
2023-03-03T00:51:27.736Z,43.42
2023-03-03T00:53:55.066Z,33.47
2023-03-03T00:56:21.869Z,30.43
2023-03-03T00:58:48.860Z,32.80
2023-03-03T01:01:19.223Z,37.45
2023-03-03T01:03:50.139Z,39.22
2023-03-03T01:06:16.657Z,37.92
2023-03-03T01:08:43.188Z,34.75
2023-03-03T01:11:15.535Z,33.67
2023-03-03T01:13:45.808Z,30.23
2023-03-03T01:16:12.441Z,37.50
2023-03-03T01:18:40.248Z,33.80
2023-03-03T01:21:06.878Z,33.95
2023-03-03T01:23:34.284Z,37.67
2023-03-03T01:26:01.276Z,36.97
2023-03-03T01:28:27.768Z,34.15
2023-03-03T01:30:54.519Z,35.13
2023-03-03T01:33:21.117Z,37.42
2023-03-03T01:35:48.591Z,35.90
2023-03-03T01:38:15.955Z,31.05
2023-03-03T01:40:42.633Z,40.67
2023-03-03T01:43:14.392Z,27.10
2023-03-03T01:46:05.070Z,32.67
2023-03-03T01:48:34.361Z,29.38
2023-03-03T01:51:04.208Z,31.55
2023-03-03T01:53:36.594Z,34.90
2023-03-03T01:56:07.335Z,35.58
2023-03-03T01:58:37.538Z,28.80
2023-03-03T02:01:09.397Z,27.98
2023-03-03T02:03:36.232Z,33.63
2023-03-03T02:06:07.344Z,26.08
2023-03-03T02:08:56.099Z,36.92
2023-03-03T02:11:23.194Z,30.73
2023-03-03T02:13:50.105Z,31.75
2023-03-03T02:16:16.834Z,37.05
2023-03-03T02:18:43.676Z,28.73
2023-03-03T02:21:14.161Z,32.95
2023-03-03T02:24:02.332Z,28.90
2023-03-03T02:26:32.532Z,27.75
2023-03-03T02:29:04.998Z,31.85
2023-03-03T02:31:32.233Z,30.88
2023-03-03T02:33:59.753Z,32.97
2023-03-03T02:36:29.073Z,30.95
2023-03-03T02:39:16.215Z,29.13
2023-03-03T02:42:04.102Z,34.92
2023-03-03T02:44:37.845Z,29.95
2023-03-03T02:47:04.799Z,28.10
2023-03-03T02:49:34.495Z,28.92
2023-03-03T02:52:03.772Z,32.10
2023-03-03T02:54:31.405Z,29.98
2023-03-03T02:57:00.611Z,30.98
2023-03-03T02:59:27.590Z,28.13
2023-03-03T03:01:56.701Z,37.10
2023-03-03T03:04:25.628Z,29.08
2023-03-03T03:06:54.584Z,32.88
2023-03-03T03:09:23.766Z,28.58
2023-03-03T03:11:52.002Z,26.73
2023-03-03T03:14:21.508Z,32.40
2023-03-03T03:16:48.340Z,29.13
2023-03-03T03:19:15.068Z,30.58
2023-03-03T03:21:42.491Z,24.35
2023-03-03T03:24:10.250Z,29.75
2023-03-03T03:26:40.796Z,28.73
2023-03-03T03:29:07.882Z,26.55
2023-03-03T03:31:34.648Z,31.77
2023-03-03T03:34:02.890Z,31.63
2023-03-03T03:36:30.204Z,27.83
2023-03-03T03:38:57.039Z,28.10
2023-03-03T03:41:23.544Z,28.73
2023-03-03T03:43:50.232Z,35.40
2023-03-03T03:46:16.900Z,27.92
2023-03-03T03:48:43.517Z,28.65
2023-03-03T03:51:12.965Z,31.23
2023-03-03T03:53:40.532Z,31.05
2023-03-03T03:56:07.692Z,26.50
2023-03-03T03:58:34.384Z,35.88
2023-03-03T04:01:07.393Z,27.58
2023-03-03T04:03:38.208Z,28.48
2023-03-03T04:06:09.393Z,35.60
2023-03-03T04:08:36.158Z,29.73
2023-03-03T04:11:03.416Z,34.58
2023-03-03T04:13:30.070Z,23.50
2023-03-03T04:15:56.765Z,30.42
2023-03-03T04:18:23.503Z,34.13
2023-03-03T04:20:50.079Z,30.17
2023-03-03T04:23:16.734Z,32.33
2023-03-03T04:25:43.365Z,26.85
2023-03-03T04:28:15.790Z,27.73
2023-03-03T04:30:43.221Z,30.70
2023-03-03T04:33:10.552Z,31.63
2023-03-03T04:35:39.456Z,31.90
2023-03-03T04:38:06.682Z,36.30
2023-03-03T04:40:34.821Z,37.70
2023-03-03T04:43:03.065Z,35.03
2023-03-03T04:45:30.041Z,34.13
2023-03-03T04:47:56.990Z,35.70
2023-03-03T04:50:23.633Z,40.55
2023-03-03T04:52:50.450Z,40.25
2023-03-03T04:55:17.369Z,39.88
2023-03-03T04:57:46.435Z,36.17
2023-03-03T05:00:15.901Z,42.47
2023-03-03T05:02:43.030Z,38.45
2023-03-03T05:05:09.717Z,29.37
2023-03-03T05:07:36.359Z,38.42
2023-03-03T05:10:03.045Z,37.40
2023-03-03T05:12:29.734Z,35.53
2023-03-03T05:14:56.274Z,33.95
2023-03-03T05:17:22.907Z,33.25
2023-03-03T05:19:49.510Z,37.83
2023-03-03T05:22:16.063Z,35.83
2023-03-03T05:24:42.669Z,28.42
2023-03-03T05:27:09.517Z,36.78
2023-03-03T05:29:36.016Z,32.40
2023-03-03T05:32:02.616Z,36.83
2023-03-03T05:34:29.098Z,36.75
2023-03-03T05:36:55.655Z,32.17
2023-03-03T05:39:22.186Z,39.88
2023-03-03T05:41:49.031Z,37.40
2023-03-03T05:44:15.611Z,37.90
2023-03-03T05:46:42.266Z,37.53
2023-03-03T05:49:09.208Z,38.47
2023-03-03T05:51:35.911Z,31.75
2023-03-03T05:54:02.378Z,30.42
2023-03-03T05:56:28.927Z,36.72
2023-03-03T05:58:55.486Z,32.17
2023-03-03T06:01:22.003Z,36.17
2023-03-03T06:03:48.543Z,37.58
2023-03-03T06:06:15.480Z,39.97
2023-03-03T06:08:42.014Z,34.50
2023-03-03T06:11:08.761Z,41.40
2023-03-03T06:13:36.299Z,47.28
2023-03-03T06:16:06.065Z,40.55
2023-03-03T06:18:32.642Z,38.78
2023-03-03T06:20:59.281Z,36.10
2023-03-03T06:23:25.814Z,32.33
2023-03-03T06:25:52.385Z,40.67
2023-03-03T06:28:19.060Z,37.67
2023-03-03T06:30:45.636Z,36.28
2023-03-03T06:33:12.150Z,36.25
2023-03-03T06:35:38.935Z,39.15
2023-03-03T06:38:05.431Z,37.30
2023-03-03T06:40:31.974Z,37.30
2023-03-03T06:42:58.579Z,38.88
2023-03-03T06:45:25.099Z,36.00
2023-03-03T06:47:51.578Z,41.80
2023-03-03T06:50:20.665Z,41.83
2023-03-03T06:52:47.157Z,45.15
2023-03-03T06:55:21.655Z,33.15
2023-03-03T06:57:48.193Z,32.50
2023-03-03T07:00:30.861Z,36.15
2023-03-03T07:03:08.096Z,43.42
2023-03-03T07:05:34.606Z,37.85
2023-03-03T07:08:01.260Z,36.63
2023-03-03T07:10:30.778Z,35.90
2023-03-03T07:13:06.657Z,37.67
2023-03-03T07:15:35.793Z,39.70
2023-03-03T07:18:02.590Z,39.70
2023-03-03T07:20:41.682Z,40.78
2023-03-03T07:23:21.706Z,37.92
2023-03-03T07:25:48.191Z,33.25
2023-03-03T07:28:24.950Z,46.35
2023-03-03T07:30:57.142Z,41.55
2023-03-03T07:33:29.679Z,40.60
2023-03-03T07:35:58.654Z,50.40
2023-03-03T07:38:37.268Z,35.10
2023-03-03T07:41:10.668Z,44.60
2023-03-03T07:43:48.675Z,37.55
2023-03-03T07:46:23.696Z,38.92
2023-03-03T07:48:52.452Z,40.45
2023-03-03T07:51:22.011Z,44.63
2023-03-03T07:53:49.241Z,37.35
2023-03-03T07:56:20.716Z,43.47
2023-03-03T07:58:47.407Z,34.88
2023-03-03T08:01:40.045Z,46.28
2023-03-03T08:04:17.961Z,44.28
2023-03-03T08:09:12.892Z,44.83
2023-03-03T08:12:08.481Z,45.95
2023-03-03T08:14:37.154Z,38.88
2023-03-03T08:17:24.504Z,47.70
2023-03-03T08:19:52.904Z,48.95
2023-03-03T08:22:28.346Z,35.63
2023-03-03T08:24:54.917Z,45.30
2023-03-03T08:27:21.407Z,41.28
2023-03-03T08:29:48.582Z,48.45
2023-03-03T08:32:15.312Z,46.43
2023-03-03T08:34:41.917Z,49.53
2023-03-03T08:37:08.551Z,47.30
2023-03-03T08:39:35.286Z,47.63
2023-03-03T08:42:01.855Z,44.67
2023-03-03T08:44:28.502Z,48.53
2023-03-03T08:46:55.176Z,53.20
2023-03-03T08:49:21.942Z,44.17
2023-03-03T08:51:48.490Z,48.88
2023-03-03T08:54:14.980Z,54.35
2023-03-03T08:56:41.557Z,45.03
2023-03-03T08:59:08.090Z,44.55
2023-03-03T09:01:35.081Z,48.47
2023-03-03T09:04:01.831Z,45.45
2023-03-03T09:06:28.598Z,49.20
2023-03-03T09:08:55.455Z,54.60
2023-03-03T09:11:27.089Z,52.13
2023-03-03T09:14:15.290Z,48.70
2023-03-03T09:16:51.295Z,51.17
2023-03-03T09:19:27.166Z,51.72
2023-03-03T09:21:56.367Z,49.58
2023-03-03T09:24:25.810Z,58.13
2023-03-03T09:26:52.581Z,48.83
2023-03-03T09:29:28.003Z,63.85
2023-03-03T09:31:59.593Z,56.40
2023-03-03T09:34:40.982Z,54.40
2023-03-03T09:37:23.522Z,46.90
2023-03-03T09:39:55.563Z,51.58
2023-03-03T09:42:34.382Z,50.22
2023-03-03T09:45:19.234Z,61.33
2023-03-03T09:48:14.741Z,54.97
2023-03-03T09:51:20.947Z,60.20
2023-03-03T09:54:05.938Z,60.67
2023-03-03T09:56:49.740Z,60.85
2023-03-03T09:59:27.854Z,66.35
2023-03-03T10:02:12.856Z,56.95
2023-03-03T10:05:23.870Z,56.22
2023-03-03T10:08:22.256Z,53.88
2023-03-03T10:10:57.903Z,55.85
2023-03-03T10:13:27.434Z,52.75
2023-03-03T10:16:28.897Z,59.80
2023-03-03T10:19:03.494Z,59.08
2023-03-03T10:21:37.961Z,70.60
2023-03-03T10:24:30.324Z,63.53
2023-03-03T10:27:14.280Z,65.50
2023-03-03T10:30:03.537Z,62.30
2023-03-03T10:32:55.022Z,65.53
2023-03-03T10:35:31.254Z,55.67
2023-03-03T10:38:09.654Z,66.15
2023-03-03T10:41:19.353Z,55.35
2023-03-03T10:44:09.092Z,58.65
2023-03-03T10:47:18.492Z,67.85
2023-03-03T10:49:52.061Z,57.97
2023-03-03T10:52:37.043Z,71.82
2023-03-03T10:55:46.997Z,56.30
2023-03-03T10:58:50.960Z,60.45
2023-03-03T11:01:30.287Z,57.72
2023-03-03T11:04:14.859Z,66.05
2023-03-03T11:06:55.598Z,60.67
2023-03-03T11:09:48.654Z,59.25
2023-03-03T11:12:27.389Z,59.03
2023-03-03T11:15:29.950Z,69.90
2023-03-03T11:18:08.912Z,72.25
2023-03-03T11:20:45.393Z,60.35
2023-03-03T11:23:50.088Z,52.55
2023-03-03T11:26:32.700Z,55.40
2023-03-03T11:29:09.964Z,56.97
2023-03-03T11:31:56.003Z,61.17
2023-03-03T11:35:10.918Z,68.85
2023-03-03T11:37:46.124Z,68.90
2023-03-03T11:40:27.195Z,61.33
2023-03-03T11:43:33.824Z,60.97
2023-03-03T11:46:27.002Z,59.13
2023-03-03T11:49:02.815Z,61.40
2023-03-03T11:51:50.688Z,59.05
2023-03-03T11:54:31.557Z,63.72
2023-03-03T11:57:50.861Z,56.67
2023-03-03T12:00:33.177Z,61.17
2023-03-03T12:03:21.583Z,55.67
2023-03-03T12:06:13.067Z,59.63
2023-03-03T12:09:15.667Z,53.00
2023-03-03T12:11:55.337Z,55.38
2023-03-03T12:14:50.446Z,64.25
2023-03-03T12:17:54.332Z,70.90
2023-03-03T12:20:44.818Z,63.33
2023-03-03T12:23:40.635Z,56.80
2023-03-03T12:26:20.467Z,60.83
2023-03-03T12:29:05.766Z,62.60
2023-03-03T12:31:46.950Z,56.92
2023-03-03T12:34:19.685Z,68.25
2023-03-03T12:36:53.764Z,55.95
2023-03-03T12:39:53.561Z,66.15
2023-03-03T12:42:33.384Z,62.35
2023-03-03T12:45:14.556Z,55.75
2023-03-03T12:47:46.823Z,62.20
2023-03-03T12:50:19.338Z,63.67
2023-03-03T12:53:10.899Z,58.10
2023-03-03T12:56:01.140Z,64.35
2023-03-03T12:58:49.468Z,56.65
2023-03-03T13:01:41.398Z,58.90
2023-03-03T13:04:38.536Z,56.05
2023-03-03T13:07:15.748Z,70.78
2023-03-03T13:10:06.729Z,74.78
2023-03-03T13:12:59.836Z,75.35
2023-03-03T13:15:55.502Z,58.88
2023-03-03T13:18:34.599Z,52.85
2023-03-03T13:21:10.431Z,63.55
2023-03-03T13:23:50.067Z,67.15
2023-03-03T13:26:19.547Z,62.28
2023-03-03T13:29:11.590Z,58.22
2023-03-03T13:31:47.539Z,57.28
2023-03-03T13:34:37.415Z,56.97
2023-03-03T13:37:31.905Z,74.30
2023-03-03T13:40:01.026Z,63.47
2023-03-03T13:42:38.531Z,59.50
2023-03-03T13:45:25.384Z,71.93
2023-03-03T13:48:15.221Z,61.72
2023-03-03T13:51:06.749Z,58.65
2023-03-03T13:53:53.700Z,58.50
2023-03-03T13:56:33.402Z,59.00
2023-03-03T13:59:13.597Z,57.33
2023-03-03T14:02:07.700Z,65.20
2023-03-03T14:05:14.169Z,76.50
2023-03-03T14:07:40.736Z,65.78
2023-03-03T14:10:34.247Z,67.47
2023-03-03T14:13:06.394Z,55.22
2023-03-03T14:15:52.409Z,57.85
2023-03-03T14:18:51.469Z,55.97
2023-03-03T14:21:38.564Z,54.50
2023-03-03T14:24:15.051Z,65.10
2023-03-03T14:27:21.495Z,58.20
2023-03-03T14:29:48.116Z,49.65
2023-03-03T14:32:35.822Z,51.25
2023-03-03T14:35:19.228Z,62.53
2023-03-03T14:37:47.346Z,52.60
2023-03-03T14:42:53.030Z,53.15
2023-03-03T14:45:38.986Z,50.00
2023-03-03T14:48:18.252Z,54.65
2023-03-03T14:50:58.478Z,47.78
2023-03-03T14:53:47.106Z,52.75
2023-03-03T14:56:28.064Z,62.07
2023-03-03T14:59:14.581Z,72.80
2023-03-03T15:01:42.037Z,65.60
2023-03-03T15:04:14.643Z,65.22
2023-03-03T15:06:46.099Z,52.30
2023-03-03T15:09:41.945Z,54.65
2023-03-03T15:12:32.904Z,72.45
2023-03-03T15:15:11.678Z,60.35
2023-03-03T15:17:55.897Z,59.55
2023-03-03T15:20:46.571Z,63.80
2023-03-03T15:23:51.557Z,59.67
2023-03-03T15:26:36.901Z,59.33
2023-03-03T15:29:38.203Z,57.15
2023-03-03T15:32:35.326Z,47.03
2023-03-03T15:35:13.887Z,43.92
2023-03-03T15:38:15.620Z,43.42
2023-03-03T15:41:01.273Z,50.92
2023-03-03T15:43:54.276Z,50.28
2023-03-03T15:46:41.988Z,73.68
2023-03-03T15:49:43.184Z,69.22
2023-03-03T15:52:25.812Z,50.63
2023-03-03T15:55:23.553Z,55.13
2023-03-03T16:01:11.750Z,56.13
2023-03-03T16:03:42.292Z,45.45
2023-03-03T16:06:47.395Z,42.75
2023-03-03T16:09:50.155Z,41.60
2023-03-03T16:12:40.184Z,44.33
2023-03-03T16:15:31.649Z,41.90
2023-03-03T16:18:09.320Z,41.47
2023-03-03T16:21:02.265Z,42.83
2023-03-03T16:23:48.459Z,44.67
2023-03-03T16:26:36.669Z,38.97
2023-03-03T16:29:22.924Z,34.80
2023-03-03T16:31:49.560Z,38.20
2023-03-03T16:34:25.598Z,38.17
2023-03-03T16:36:59.290Z,43.97
2023-03-03T16:39:44.224Z,40.13
2023-03-03T16:42:31.737Z,37.58
2023-03-03T16:45:01.177Z,36.03
2023-03-03T16:47:33.624Z,37.78
2023-03-03T16:50:20.752Z,36.92
2023-03-03T16:53:00.827Z,34.03
2023-03-03T16:56:10.754Z,39.42
2023-03-03T16:58:51.194Z,59.60
2023-03-03T17:01:26.850Z,35.30
2023-03-03T17:04:14.927Z,33.22
2023-03-03T17:06:49.258Z,37.58
2023-03-03T17:09:32.125Z,38.53
2023-03-03T17:12:22.624Z,36.65
2023-03-03T17:14:52.062Z,36.63
2023-03-03T17:17:47.969Z,28.85
2023-03-03T17:20:37.356Z,32.38
2023-03-03T17:23:22.427Z,37.70
2023-03-03T17:26:12.925Z,37.50
2023-03-03T17:28:51.476Z,31.38
2023-03-03T17:31:34.614Z,40.50
2023-03-03T17:34:43.600Z,35.10
2023-03-03T17:37:32.289Z,36.85
2023-03-03T17:40:03.597Z,39.03
2023-03-03T17:42:44.617Z,36.45
2023-03-03T17:45:15.846Z,36.72
2023-03-03T17:47:57.868Z,34.63
2023-03-03T17:50:39.852Z,47.40
2023-03-03T17:53:15.504Z,34.83
2023-03-03T17:55:58.917Z,43.10
2023-03-03T17:58:39.621Z,32.88
2023-03-03T18:01:50.598Z,38.40
2023-03-03T18:04:35.260Z,43.70
2023-03-03T18:07:46.882Z,48.30
2023-03-03T18:10:38.724Z,52.58
2023-03-03T18:13:42.794Z,44.45
2023-03-03T18:16:21.111Z,47.75
2023-03-03T18:19:12.216Z,39.05
2023-03-03T18:21:43.969Z,42.40
2023-03-03T18:24:25.737Z,43.92
2023-03-03T18:26:56.189Z,38.72
2023-03-03T18:29:27.939Z,43.92
2023-03-03T18:31:57.494Z,42.53
2023-03-03T18:34:33.341Z,42.25
2023-03-03T18:37:07.349Z,43.17
2023-03-03T18:39:39.904Z,38.65
2023-03-03T18:42:31.498Z,40.63
2023-03-03T18:45:10.651Z,38.85
2023-03-03T18:48:15.651Z,39.38
2023-03-03T18:50:47.957Z,42.50
2023-03-03T18:53:30.957Z,47.80
2023-03-03T18:56:02.754Z,40.60
2023-03-03T18:58:34.052Z,39.95
2023-03-03T19:01:03.174Z,34.38
2023-03-03T19:03:45.301Z,40.92
2023-03-03T19:06:12.107Z,42.92
2023-03-03T19:08:56.832Z,45.45
2023-03-03T19:11:37.831Z,51.42
2023-03-03T19:14:22.285Z,47.80
2023-03-03T19:16:49.037Z,46.20
2023-03-03T19:19:17.864Z,52.35
2023-03-03T19:21:50.398Z,41.67
2023-03-03T19:24:25.468Z,47.08
2023-03-03T19:26:57.671Z,43.85
2023-03-03T19:29:44.229Z,45.63
2023-03-03T19:32:27.483Z,47.03
2023-03-03T19:35:15.915Z,46.13
2023-03-03T19:38:22.170Z,40.35
2023-03-03T19:41:13.380Z,45.72
2023-03-03T19:43:46.420Z,43.13
2023-03-03T19:46:31.637Z,44.78
2023-03-03T19:48:58.651Z,47.53
2023-03-03T19:51:30.941Z,52.20
2023-03-03T19:54:03.608Z,54.50
2023-03-03T19:56:44.187Z,57.00
2023-03-03T19:59:27.002Z,51.17
2023-03-03T20:02:03.454Z,55.10
2023-03-03T20:04:57.626Z,52.83
2023-03-03T20:07:48.960Z,53.28
2023-03-03T20:10:15.616Z,54.92
2023-03-03T20:13:06.646Z,49.33
2023-03-03T20:16:01.699Z,44.10
2023-03-03T20:18:40.512Z,52.08
2023-03-03T20:21:16.478Z,50.53
2023-03-03T20:24:10.831Z,59.42
2023-03-03T20:27:05.563Z,51.33
2023-03-03T20:30:03.713Z,42.25
2023-03-03T20:32:37.030Z,39.85
2023-03-03T20:35:23.034Z,51.45
2023-03-03T20:38:26.805Z,52.33
2023-03-03T20:41:29.272Z,50.03
2023-03-03T20:44:03.191Z,51.47
2023-03-03T20:46:53.979Z,57.53
2023-03-03T20:49:47.575Z,52.70
2023-03-03T20:52:30.936Z,51.63
2023-03-03T20:55:17.686Z,61.45
2023-03-03T20:57:47.209Z,51.33
2023-03-03T21:00:25.340Z,50.38
2023-03-03T21:03:06.241Z,50.17
2023-03-03T21:05:33.005Z,50.22
2023-03-03T21:08:04.850Z,53.53
2023-03-03T21:10:34.448Z,54.67
2023-03-03T21:13:37.812Z,55.70
2023-03-03T21:16:22.320Z,52.15
2023-03-03T21:18:58.104Z,44.33
2023-03-03T21:21:26.766Z,54.28
2023-03-03T21:23:53.864Z,54.08
2023-03-03T21:26:50.457Z,57.35
2023-03-03T21:29:21.317Z,42.53
2023-03-03T21:31:50.506Z,53.78
2023-03-03T21:34:30.300Z,48.80
2023-03-03T21:36:59.338Z,46.75
2023-03-03T21:39:40.535Z,51.25
2023-03-03T21:42:12.661Z,54.67
2023-03-03T21:44:42.495Z,47.55
2023-03-03T21:47:46.748Z,55.10
2023-03-03T21:50:13.835Z,51.65
2023-03-03T21:52:40.487Z,63.60
2023-03-03T21:55:08.256Z,61.90
2023-03-03T21:57:35.018Z,52.65
2023-03-03T22:00:02.310Z,56.55
2023-03-03T22:02:28.887Z,49.57
2023-03-03T22:04:55.544Z,53.80
2023-03-03T22:07:22.312Z,50.58
2023-03-03T22:09:48.989Z,53.40
2023-03-03T22:12:15.919Z,57.58
2023-03-03T22:14:42.480Z,62.17
2023-03-03T22:17:09.195Z,64.45
2023-03-03T22:19:36.010Z,60.33
2023-03-03T22:22:02.624Z,59.45
2023-03-03T22:24:29.334Z,70.30
2023-03-03T22:26:55.963Z,73.57
2023-03-03T22:29:22.719Z,70.00
2023-03-03T22:31:52.372Z,69.57
2023-03-03T22:34:20.562Z,66.82
2023-03-03T22:36:47.208Z,73.13
2023-03-03T22:39:13.856Z,53.53
2023-03-03T22:41:40.796Z,52.08
2023-03-03T22:44:07.478Z,55.58
2023-03-03T22:46:34.569Z,59.83
2023-03-03T22:49:01.267Z,56.55
2023-03-03T22:51:30.984Z,55.90
2023-03-03T22:53:57.717Z,59.05
2023-03-03T22:56:24.352Z,59.53
2023-03-03T22:58:51.091Z,59.90
2023-03-03T23:01:20.813Z,52.90
2023-03-03T23:03:47.620Z,54.80
2023-03-03T23:06:14.593Z,55.75
2023-03-03T23:08:41.849Z,52.78
2023-03-03T23:11:08.504Z,56.95
2023-03-03T23:13:35.109Z,56.78
2023-03-03T23:16:02.116Z,53.00
2023-03-03T23:18:29.922Z,60.00
2023-03-03T23:23:23.589Z,62.13
2023-03-03T23:25:50.200Z,70.05
2023-03-03T23:28:16.918Z,64.28
2023-03-03T23:30:43.699Z,68.90
2023-03-03T23:33:10.373Z,67.55
2023-03-03T23:35:37.075Z,63.60
2023-03-03T23:38:03.794Z,69.75
2023-03-03T23:40:30.448Z,77.97
2023-03-03T23:42:57.068Z,73.22
2023-03-03T23:45:23.667Z,78.45
2023-03-03T23:47:50.354Z,61.08
2023-03-03T23:50:17.285Z,74.57
2023-03-03T23:52:43.939Z,71.50
2023-03-03T23:55:10.924Z,71.90
2023-03-03T23:57:37.579Z,68.10
